Morgenster — PHMY — position and weather

sailwx.info

Track history (hours):
 
Tides and Currents Weather Stations Pressure Air Temp Water Temp Dewpoint Dewpoint Depression Visibility Wind Speed Wind Dir Waves Ship Positions

Morgenster

Last reported at 2019-Oct-17 17:30 UTC. Time now 2019-Oct-17 17:45 UTC.
Position N 51°44' E 001°41'.

Length 38 m; draft 2.4 m.

Type: Sailing vessel. MMSI: 245136000.

Date/timePositionNaut miles runAvg speedWind from/ knotsBaromVisibWave heightAir tempDewpointWater temp
2019-Oct-17 17:30N 51°44' E 001°41'4 8.5
2019-Oct-17 17:00N 51°40' E 001°42'5 9.2
2019-Oct-17 16:30N 51°35' E 001°42'5 9.4
2019-Oct-17 16:00N 51°30' E 001°43'510.4
2019-Oct-17 15:30N 51°25' E 001°44'510.4
2019-Oct-17 15:01N 51°20' E 001°43'510.7
2019-Oct-17 14:30N 51°15' E 001°42'5 9.1
2019-Oct-17 14:00N 51°10' E 001°42'14 2.2
2019-Oct-17 07:46N 50°58' E 001°52'0 0.0
2019-Oct-17 05:49N 50°58' E 001°52'0 0.0
2019-Oct-17 05:25N 50°58' E 001°52'0 0.0
2019-Oct-17 03:25N 50°58' E 001°52'0 0.0
2019-Oct-17 02:55N 50°58' E 001°52'0 0.0
2019-Oct-17 01:13N 50°58' E 001°52'0 0.0
2019-Oct-17 00:43N 50°58' E 001°52'0 0.0
2019-Oct-17 00:25N 50°58' E 001°52'0 0.0
2019-Oct-16 23:37N 50°58' E 001°52'0 0.0
2019-Oct-16 23:16N 50°58' E 001°52'0 0.0
2019-Oct-16 22:40N 50°58' E 001°52'1 0.0
2019-Oct-16 11:40N 50°58' E 001°51'3 0.8
2019-Oct-16 07:39N 51°00' E 001°54'0 0.0
2019-Oct-16 07:21N 51°00' E 001°54'0 0.0
2019-Oct-16 05:33N 51°00' E 001°54'0 0.0
2019-Oct-16 03:39N 51°00' E 001°54'0 0.0
2019-Oct-15 22:03N 51°00' E 001°54'0 0.3
2019-Oct-15 21:57N 51°00' E 001°54'0 0.0
2019-Oct-15 20:39N 51°00' E 001°54'0 0.0
2019-Oct-15 19:51N 51°00' E 001°54'0 0.0
2019-Oct-15 18:57N 51°00' E 001°54'0 0.5
2019-Oct-15 18:30N 51°00' E 001°54'2 2.6
2019-Oct-15 17:53N 51°02' E 001°52'3 6.1
2019-Oct-15 17:21N 51°03' E 001°48'3 7.6
2019-Oct-15 17:00N 51°05' E 001°44'4 7.9
2019-Oct-15 16:30N 51°07' E 001°39'4 7.6
2019-Oct-15 16:00N 51°08' E 001°34'4 7.1
2019-Oct-15 15:30N 51°11' E 001°29'3 5.6
2019-Oct-15 15:01N 51°12' E 001°26'1 2.3
2019-Oct-15 14:28N 51°14' E 001°25'0 0.0
2019-Oct-15 13:58N 51°14' E 001°25'0 0.0
2019-Oct-15 13:28N 51°14' E 001°25'0 0.0
2019-Oct-15 12:58N 51°14' E 001°25'0 0.0
2019-Oct-15 12:28N 51°14' E 001°25'0 0.0
2019-Oct-15 11:58N 51°14' E 001°25'0 0.0
2019-Oct-15 11:28N 51°14' E 001°25'0 0.0
2019-Oct-15 10:58N 51°14' E 001°25'0 0.0
2019-Oct-15 10:28N 51°14' E 001°25'0 0.0
2019-Oct-15 09:58N 51°14' E 001°25'2 3.9
2019-Oct-15 09:30N 51°15' E 001°27'3 6.6
2019-Oct-15 09:00N 51°18' E 001°28'4 7.9
2019-Oct-15 08:30N 51°22' E 001°29'4 7.7
2019-Oct-15 08:00N 51°26' E 001°31'3 6.8
2019-Oct-15 07:30N 51°28' E 001°34'2 4.6
2019-Oct-15 07:00N 51°29' E 001°38'3 5.9
2019-Oct-15 06:30N 51°28' E 001°42'3 5.6
2019-Oct-15 06:00N 51°28' E 001°47'3 5.3
2019-Oct-15 05:30N 51°27' E 001°51'3 6.2
2019-Oct-15 05:00N 51°26' E 001°56'4 7.5
2019-Oct-15 04:30N 51°26' E 002°02'15 5.7
2019-Oct-15 01:55N 51°24' E 002°25'2 5.8
2019-Oct-15 01:30N 51°24' E 002°29'3 5.0
2019-Oct-15 00:55N 51°24' E 002°34'2 4.3
2019-Oct-15 00:24N 51°24' E 002°37'8 5.5
2019-Oct-14 22:55N 51°25' E 002°50'3 7.0
2019-Oct-14 22:27N 51°25' E 002°55'4 6.5
2019-Oct-14 21:49N 51°26' E 003°01'3 5.3
2019-Oct-14 21:18N 51°28' E 003°05'27 7.3
2019-Oct-14 17:35N 51°47' E 003°36'2 7.8
2019-Oct-14 17:21N 51°48' E 003°38'3 7.4
2019-Oct-14 16:57N 51°50' E 003°41'3 6.6
2019-Oct-14 16:26N 51°53' E 003°45'2 4.7
2019-Oct-14 16:00N 51°54' E 003°48'2 4.1
2019-Oct-14 15:29N 51°55' E 003°50'2 4.8
2019-Oct-14 15:00N 51°57' E 003°53'3 5.3
2019-Oct-14 14:30N 51°59' E 003°56'2 3.1
2019-Oct-14 14:00N 51°60' E 003°59'2 4.2
2019-Oct-14 13:30N 52°01' E 004°01'3 5.3
2019-Oct-14 13:00N 52°03' E 004°04'3 6.4
2019-Oct-14 12:30N 52°05' E 004°08'4 7.3
2019-Oct-14 12:00N 52°08' E 004°11'3 6.5
2019-Oct-14 11:30N 52°11' E 004°15'4 7.6
2019-Oct-14 11:00N 52°14' E 004°18'4 7.8
2019-Oct-14 10:30N 52°17' E 004°21'4 7.2
2019-Oct-14 10:00N 52°20' E 004°24'3 6.7
2019-Oct-14 09:30N 52°23' E 004°27'4 7.6
2019-Oct-14 09:00N 52°26' E 004°30'2 4.0
2019-Oct-14 08:31N 52°28' E 004°33'1 1.3
2019-Oct-14 08:00N 52°28' E 004°34'1 2.2
2019-Oct-14 07:30N 52°28' E 004°36'2 4.0
2019-Oct-14 07:00N 52°28' E 004°39'1 1.5
2019-Oct-14 06:27N 52°28' E 004°40'0 0.0
2019-Oct-14 06:00N 52°28' E 004°40'0 0.0
2019-Oct-14 05:30N 52°28' E 004°40'0 0.0
2019-Oct-14 05:00N 52°28' E 004°40'0 0.0
2019-Oct-14 04:30N 52°28' E 004°40'0 0.0
2019-Oct-14 03:51N 52°28' E 004°40'0 0.0
2019-Oct-14 03:27N 52°28' E 004°40'0 0.0
2019-Oct-14 02:57N 52°28' E 004°40'0 0.0
2019-Oct-14 02:30N 52°28' E 004°40'0 0.0
2019-Oct-14 02:00N 52°28' E 004°40'0 0.0
2019-Oct-14 01:30N 52°28' E 004°40'0 0.0
2019-Oct-14 00:57N 52°28' E 004°40'0 0.0
2019-Oct-14 00:24N 52°28' E 004°40'0 0.0
2019-Oct-13 23:57N 52°28' E 004°40'0 0.0
2019-Oct-13 23:30N 52°28' E 004°40'0 0.0
2019-Oct-13 23:00N 52°28' E 004°40'0 0.0
2019-Oct-13 22:27N 52°28' E 004°40'0 0.0
2019-Oct-13 22:00N 52°28' E 004°40'0 0.0
2019-Oct-13 21:30N 52°28' E 004°40'0 0.0
2019-Oct-13 21:00N 52°28' E 004°40'0 0.0
2019-Oct-13 20:30N 52°28' E 004°40'0 0.0
2019-Oct-13 20:00N 52°28' E 004°40'0 0.0
2019-Oct-13 19:30N 52°28' E 004°40'0 0.0
2019-Oct-13 19:00N 52°28' E 004°40'0 0.0
2019-Oct-13 18:30N 52°28' E 004°40'0 0.5
2019-Oct-13 18:00N 52°28' E 004°40'3 5.0
2019-Oct-13 17:30N 52°26' E 004°43'3 5.6
2019-Oct-13 17:00N 52°26' E 004°47'4 7.2
2019-Oct-13 16:30N 52°24' E 004°53'1 1.2
2019-Oct-13 16:00N 52°24' E 004°53'0 0.0
2019-Oct-13 15:30N 52°24' E 004°53'0 0.0
2019-Oct-13 15:00N 52°24' E 004°53'0 0.0
2019-Oct-13 14:30N 52°24' E 004°53'0 0.0
2019-Oct-13 14:00N 52°24' E 004°53'0 0.0
2019-Oct-13 13:30N 52°24' E 004°53'0 0.0
2019-Oct-13 12:59N 52°24' E 004°53'0 0.0
2019-Oct-13 12:31N 52°24' E 004°53'0 0.3
2019-Oct-13 12:01N 52°24' E 004°54'1 1.5
2019-Oct-13 11:31N 52°23' E 004°54'2 3.7
2019-Oct-13 11:00N 52°25' E 004°52'2 4.8
2019-Oct-13 10:30N 52°25' E 004°48'3 5.1
2019-Oct-13 10:00N 52°26' E 004°44'2 4.7
2019-Oct-13 09:30N 52°27' E 004°41'2 2.8
2019-Oct-13 08:58N 52°28' E 004°40'0 0.0
2019-Oct-13 08:28N 52°28' E 004°40'0 0.0
2019-Oct-13 07:55N 52°28' E 004°40'0 0.0
2019-Oct-13 07:28N 52°28' E 004°40'0 0.0
2019-Oct-13 06:55N 52°28' E 004°40'0 0.0
2019-Oct-13 06:28N 52°28' E 004°40'0 0.0
2019-Oct-13 05:58N 52°28' E 004°40'0 0.0
2019-Oct-13 05:28N 52°28' E 004°40'0 0.0
2019-Oct-13 04:58N 52°28' E 004°40'0 0.0
2019-Oct-13 04:28N 52°28' E 004°40'0 0.0
2019-Oct-13 03:58N 52°28' E 004°40'0 0.0
2019-Oct-13 03:28N 52°28' E 004°40'0 0.0
2019-Oct-13 02:58N 52°28' E 004°40'0 0.0
2019-Oct-13 02:28N 52°28' E 004°40'0 0.0
2019-Oct-13 01:58N 52°28' E 004°40'0 0.0
2019-Oct-13 01:28N 52°28' E 004°40'0 0.0
2019-Oct-13 00:58N 52°28' E 004°40'0 0.0
2019-Oct-13 00:22N 52°28' E 004°40'0 0.0
2019-Oct-12 23:55N 52°28' E 004°40'0 0.0
2019-Oct-12 23:28N 52°28' E 004°40'0 0.0
2019-Oct-12 22:58N 52°28' E 004°40'0 0.0
2019-Oct-12 22:28N 52°28' E 004°40'0 0.0
2019-Oct-12 21:58N 52°28' E 004°40'0 0.0
2019-Oct-12 21:28N 52°28' E 004°40'0 0.0
2019-Oct-12 20:58N 52°28' E 004°40'0 0.0
2019-Oct-12 20:28N 52°28' E 004°40'0 0.0
2019-Oct-12 19:52N 52°28' E 004°40'0 0.0
2019-Oct-12 19:28N 52°28' E 004°40'0 0.0
2019-Oct-12 18:58N 52°28' E 004°40'0 0.0
2019-Oct-12 18:28N 52°28' E 004°40'0 0.0
2019-Oct-12 17:58N 52°28' E 004°40'0 0.0
2019-Oct-12 17:28N 52°28' E 004°40'0 0.0
2019-Oct-12 16:58N 52°28' E 004°40'0 0.0
2019-Oct-12 16:28N 52°28' E 004°40'0 0.0
2019-Oct-12 15:58N 52°28' E 004°40'0 0.0
2019-Oct-12 15:28N 52°28' E 004°40'0 0.0
2019-Oct-12 14:58N 52°28' E 004°40'0 0.0
2019-Oct-12 14:28N 52°28' E 004°40'0 0.0
2019-Oct-12 13:58N 52°28' E 004°40'0 0.0
2019-Oct-12 13:28N 52°28' E 004°40'0 0.0
2019-Oct-12 13:00N 52°28' E 004°40'1 1.9
2019-Oct-12 12:30N 52°27' E 004°40'3 6.2
2019-Oct-12 12:00N 52°26' E 004°45'3 6.1
2019-Oct-12 11:30N 52°25' E 004°50'3 5.9
2019-Oct-12 11:01N 52°24' E 004°54'2 5.0
2019-Oct-12 10:31N 52°23' E 004°57'1 1.8
2019-Oct-12 10:00N 52°22' E 004°59'3 5.4
2019-Oct-12 09:30N 52°23' E 005°03'3 5.7
2019-Oct-12 09:00N 52°24' E 005°07'3 5.7
2019-Oct-12 08:30N 52°26' E 005°11'3 5.6
2019-Oct-12 08:00N 52°28' E 005°15'3 5.6
2019-Oct-12 07:30N 52°29' E 005°18'3 5.8
2019-Oct-12 07:00N 52°30' E 005°23'2 1.5
2019-Oct-12 05:25N 52°31' E 005°26'0 0.0
2019-Oct-12 04:49N 52°31' E 005°26'0 0.0
2019-Oct-12 03:52N 52°31' E 005°26'0 0.0
2019-Oct-12 02:28N 52°31' E 005°26'0 0.0
2019-Oct-12 01:37N 52°31' E 005°26'0 0.0
2019-Oct-12 01:01N 52°31' E 005°26'0 0.0
2019-Oct-11 23:01N 52°31' E 005°26'0 0.0
2019-Oct-11 22:37N 52°31' E 005°26'0 0.0
2019-Oct-11 15:13N 52°31' E 005°26'0 0.0
2019-Oct-11 14:55N 52°31' E 005°26'0 0.0
2019-Oct-11 12:13N 52°31' E 005°26'0 0.0
2019-Oct-11 11:37N 52°31' E 005°26'0 0.0
2019-Oct-11 11:25N 52°31' E 005°26'0 0.0
2019-Oct-11 10:55N 52°31' E 005°26'0 0.0
2019-Oct-11 09:37N 52°31' E 005°26'0 0.0
2019-Oct-11 08:13N 52°31' E 005°26'0 0.0
2019-Oct-11 07:25N 52°31' E 005°26'0 0.0
2019-Oct-11 06:07N 52°31' E 005°26'0 0.0
2019-Oct-10 23:28N 52°31' E 005°26'0 0.0
2019-Oct-10 19:46N 52°31' E 005°26'0 0.0
2019-Oct-10 19:28N 52°31' E 005°26'0 0.0
2019-Oct-10 18:50N 52°31' E 005°26'0 0.5
2019-Oct-10 18:31N 52°31' E 005°26'1 2.2
2019-Oct-10 18:00N 52°32' E 005°26'3 5.1
2019-Oct-10 17:30N 52°34' E 005°28'3 5.5
2019-Oct-10 17:00N 52°37' E 005°29'3 5.4
2019-Oct-10 16:30N 52°40' E 005°30'3 6.7
2019-Oct-10 16:00N 52°42' E 005°26'3 7.0
2019-Oct-10 15:30N 52°44' E 005°22'4 8.3
2019-Oct-10 15:00N 52°47' E 005°17'4 8.6
2019-Oct-10 14:30N 52°50' E 005°12'4 8.1
2019-Oct-10 14:01N 52°53' E 005°07'3 6.7
2019-Oct-10 13:30N 52°55' E 005°03'1 1.7
2019-Oct-10 13:00N 52°56' E 005°02'0 0.0
2019-Oct-10 12:30N 52°56' E 005°02'1 1.5
2019-Oct-10 12:01N 52°57' E 005°02'3 6.7
2019-Oct-10 11:30N 52°59' E 004°57'3 6.2
2019-Oct-10 11:00N 52°59' E 004°52'3 5.9
2019-Oct-10 10:30N 52°58' E 004°48'1 2.7
2019-Oct-10 09:58N 52°57' E 004°47'0 0.3
2019-Oct-10 09:30N 52°57' E 004°47'1 1.4
2019-Oct-10 09:01N 52°57' E 004°46'0 0.0
2019-Oct-10 08:28N 52°57' E 004°46'0 0.0
2019-Oct-10 07:52N 52°57' E 004°46'0 0.0
2019-Oct-10 07:31N 52°57' E 004°46'0 0.0
2019-Oct-10 06:55N 52°57' E 004°46'0 0.0
2019-Oct-10 06:28N 52°57' E 004°46'0 0.0
2019-Oct-10 06:01N 52°57' E 004°46'0 0.0
2019-Oct-10 05:13N 52°57' E 004°46'0 0.0
2019-Oct-10 04:58N 52°57' E 004°46'0 0.0
2019-Oct-10 04:30N 52°57' E 004°46'0 0.0
2019-Oct-10 04:01N 52°57' E 004°46'0 0.0
2019-Oct-10 03:07N 52°57' E 004°46'0 0.0
2019-Oct-10 03:00N 52°57' E 004°46'0 0.0
2019-Oct-10 02:31N 52°57' E 004°46'0 0.0
2019-Oct-10 02:00N 52°57' E 004°46'0 0.0
2019-Oct-10 01:30N 52°57' E 004°46'0 0.0
2019-Oct-10 00:48N 52°57' E 004°46'0 0.0
2019-Oct-10 00:30N 52°57' E 004°46'0 0.0
2019-Oct-10 00:00N 52°57' E 004°46'0 0.0
2019-Oct-09 23:12N 52°57' E 004°46'0 0.0
2019-Oct-09 23:00N 52°57' E 004°46'0 0.0
2019-Oct-09 22:31N 52°57' E 004°46'0 0.0
2019-Oct-09 21:57N 52°57' E 004°46'0 0.0
2019-Oct-09 21:27N 52°57' E 004°46'0 0.0
2019-Oct-09 21:00N 52°57' E 004°46'0 0.0
2019-Oct-09 20:25N 52°57' E 004°46'0 0.0
2019-Oct-09 19:54N 52°57' E 004°46'0 0.0
2019-Oct-09 19:30N 52°57' E 004°46'0 0.0
2019-Oct-09 19:00N 52°57' E 004°46'0 0.4
2019-Oct-09 18:30N 52°57' E 004°47'0 0.9
2019-Oct-09 18:00N 52°57' E 004°47'1 1.3
2019-Oct-09 17:30N 52°58' E 004°47'1 2.1
2019-Oct-09 17:00N 52°58' E 004°45'3 6.0
2019-Oct-09 16:30N 52°57' E 004°41'4 7.5
2019-Oct-09 15:59N 52°53' E 004°38'4 7.2
2019-Oct-09 15:22N 52°50' E 004°33'4 9.1
2019-Oct-09 14:58N 52°47' E 004°30'8 9.6
2019-Oct-09 14:07N 52°40' E 004°23'5 8.1
2019-Oct-09 13:27N 52°35' E 004°19'510.8
2019-Oct-09 13:00N 52°30' E 004°18'4 9.1
2019-Oct-09 12:30N 52°26' E 004°16'510.1
2019-Oct-09 12:00N 52°21' E 004°13'510.4
2019-Oct-09 11:30N 52°16' E 004°11'510.0
2019-Oct-09 11:00N 52°11' E 004°09'510.3
2019-Oct-09 10:30N 52°06' E 004°06'510.1
2019-Oct-09 10:00N 52°02' E 004°02'3 7.0
2019-Oct-09 09:31N 51°59' E 004°06'5 9.3
2019-Oct-09 09:00N 51°56' E 004°12'5 9.1
2019-Oct-09 08:31N 51°54' E 004°18'4 8.0
2019-Oct-09 08:01N 51°54' E 004°24'3 5.2
2019-Oct-09 07:29N 51°54' E 004°29'0 0.0
2019-Oct-09 06:59N 51°54' E 004°29'0 0.0
2019-Oct-09 06:29N 51°54' E 004°29'0 0.0
2019-Oct-09 05:59N 51°54' E 004°29'0 0.0
2019-Oct-09 05:29N 51°54' E 004°29'0 0.0
2019-Oct-09 04:59N 51°54' E 004°29'0 0.0
2019-Oct-09 04:29N 51°54' E 004°29'0 0.0
2019-Oct-09 03:59N 51°54' E 004°29'0 0.0
2019-Oct-09 03:29N 51°54' E 004°29'0 0.0
2019-Oct-09 02:59N 51°54' E 004°29'0 0.0
2019-Oct-09 02:29N 51°54' E 004°29'0 0.0
2019-Oct-09 01:59N 51°54' E 004°29'0 0.0
2019-Oct-09 01:29N 51°54' E 004°29'0 0.0
2019-Oct-09 00:59N 51°54' E 004°29'0 0.0
2019-Oct-09 00:29N 51°54' E 004°29'0 0.0
2019-Oct-08 23:59N 51°54' E 004°29'0 0.0
2019-Oct-08 23:29N 51°54' E 004°29'0 0.0
2019-Oct-08 22:59N 51°54' E 004°29'0 0.0
2019-Oct-08 22:29N 51°54' E 004°29'0 0.0
2019-Oct-08 21:59N 51°54' E 004°29'0 0.0
2019-Oct-08 21:29N 51°54' E 004°29'0 0.0
2019-Oct-08 20:59N 51°54' E 004°29'0 0.0
2019-Oct-08 20:29N 51°54' E 004°29'0 0.0
2019-Oct-08 19:59N 51°54' E 004°29'0 0.0
2019-Oct-08 19:29N 51°54' E 004°29'0 0.0
2019-Oct-08 18:59N 51°54' E 004°29'0 0.0
2019-Oct-08 18:29N 51°54' E 004°29'0 0.0
2019-Oct-08 17:59N 51°54' E 004°29'0 0.0
2019-Oct-08 17:29N 51°54' E 004°29'0 0.0
2019-Oct-08 16:59N 51°54' E 004°29'0 0.0
2019-Oct-08 16:29N 51°54' E 004°29'0 0.0
2019-Oct-08 15:59N 51°54' E 004°29'0 0.0
2019-Oct-08 15:29N 51°54' E 004°29'0 0.0
2019-Oct-08 14:59N 51°54' E 004°29'0 0.0
2019-Oct-08 14:29N 51°54' E 004°29'0 0.0
2019-Oct-08 13:59N 51°54' E 004°29'0 0.0
2019-Oct-08 13:29N 51°54' E 004°29'0 0.0
2019-Oct-08 12:59N 51°54' E 004°29'0 0.0
2019-Oct-08 12:29N 51°54' E 004°29'0 0.0
2019-Oct-08 11:59N 51°54' E 004°29'0 0.0
2019-Oct-08 11:29N 51°54' E 004°29'0 0.0
2019-Oct-08 10:59N 51°54' E 004°29'0 0.0
2019-Oct-08 10:29N 51°54' E 004°29'0 0.0
2019-Oct-08 09:59N 51°54' E 004°29'0 0.0
2019-Oct-08 09:29N 51°54' E 004°29'0 0.0
2019-Oct-08 08:59N 51°54' E 004°29'0 0.0
2019-Oct-08 08:29N 51°54' E 004°29'0 0.0
2019-Oct-08 07:59N 51°54' E 004°29'0 0.0
2019-Oct-08 07:29N 51°54' E 004°29'0 0.0
2019-Oct-08 06:59N 51°54' E 004°29'0 0.0
2019-Oct-08 06:29N 51°54' E 004°29'0 0.0
2019-Oct-08 05:59N 51°54' E 004°29'0 0.0
2019-Oct-08 05:29N 51°54' E 004°29'0 0.0
2019-Oct-08 04:59N 51°54' E 004°29'0 0.0
2019-Oct-08 04:29N 51°54' E 004°29'0 0.0
2019-Oct-08 03:59N 51°54' E 004°29'0 0.0
2019-Oct-08 03:29N 51°54' E 004°29'0 0.0
2019-Oct-08 02:59N 51°54' E 004°29'0 0.0
2019-Oct-08 02:29N 51°54' E 004°29'0 0.0
2019-Oct-08 01:59N 51°54' E 004°29'0 0.0
2019-Oct-08 01:29N 51°54' E 004°29'0 0.0
2019-Oct-08 00:59N 51°54' E 004°29'0 0.0
2019-Oct-08 00:29N 51°54' E 004°29'0 0.0
2019-Oct-07 23:59N 51°54' E 004°29'0 0.0
2019-Oct-07 23:29N 51°54' E 004°29'0 0.0
2019-Oct-07 22:59N 51°54' E 004°29'0 0.0
2019-Oct-07 22:29N 51°54' E 004°29'0 0.0
2019-Oct-07 21:59N 51°54' E 004°29'0 0.0
2019-Oct-07 21:29N 51°54' E 004°29'0 0.0
2019-Oct-07 20:59N 51°54' E 004°29'0 0.0
2019-Oct-07 20:29N 51°54' E 004°29'0 0.0
2019-Oct-07 19:59N 51°54' E 004°29'0 0.0
2019-Oct-07 19:29N 51°54' E 004°29'0 0.0
2019-Oct-07 18:59N 51°54' E 004°29'0 0.0
2019-Oct-07 18:29N 51°54' E 004°29'0 0.1
2019-Oct-07 18:00N 51°54' E 004°29'2 4.7
2019-Oct-07 17:30N 51°54' E 004°25'  
Track history (hours):
 
Tides and Currents Weather Stations Pressure Air Temp Water Temp Dewpoint Dewpoint Depression Visibility Wind Speed Wind Dir Waves Ship Positions

Morgenster

Last reported at 2019-Oct-17 17:30 UTC. Time now 2019-Oct-17 17:45 UTC.
Position N 51°44' E 001°41'.

Length 38 m; draft 2.4 m.

Type: Sailing vessel. MMSI: 245136000.

Date/timePositionNaut miles runAvg speedWind from/ knotsBaromVisibWave heightAir tempDewpointWater temp
2019-Oct-17 17:30N 51°44' E 001°41'4 8.5
2019-Oct-17 17:00N 51°40' E 001°42'5 9.2
2019-Oct-17 16:30N 51°35' E 001°42'5 9.4
2019-Oct-17 16:00N 51°30' E 001°43'510.4
2019-Oct-17 15:30N 51°25' E 001°44'510.4
2019-Oct-17 15:01N 51°20' E 001°43'510.7
2019-Oct-17 14:30N 51°15' E 001°42'5 9.1
2019-Oct-17 14:00N 51°10' E 001°42'14 2.2
2019-Oct-17 07:46N 50°58' E 001°52'0 0.0
2019-Oct-17 05:49N 50°58' E 001°52'0 0.0
2019-Oct-17 05:25N 50°58' E 001°52'0 0.0
2019-Oct-17 03:25N 50°58' E 001°52'0 0.0
2019-Oct-17 02:55N 50°58' E 001°52'0 0.0
2019-Oct-17 01:13N 50°58' E 001°52'0 0.0
2019-Oct-17 00:43N 50°58' E 001°52'0 0.0
2019-Oct-17 00:25N 50°58' E 001°52'0 0.0
2019-Oct-16 23:37N 50°58' E 001°52'0 0.0
2019-Oct-16 23:16N 50°58' E 001°52'0 0.0
2019-Oct-16 22:40N 50°58' E 001°52'1 0.0
2019-Oct-16 11:40N 50°58' E 001°51'3 0.8
2019-Oct-16 07:39N 51°00' E 001°54'0 0.0
2019-Oct-16 07:21N 51°00' E 001°54'0 0.0
2019-Oct-16 05:33N 51°00' E 001°54'0 0.0
2019-Oct-16 03:39N 51°00' E 001°54'0 0.0
2019-Oct-15 22:03N 51°00' E 001°54'0 0.3
2019-Oct-15 21:57N 51°00' E 001°54'0 0.0
2019-Oct-15 20:39N 51°00' E 001°54'0 0.0
2019-Oct-15 19:51N 51°00' E 001°54'0 0.0
2019-Oct-15 18:57N 51°00' E 001°54'0 0.5
2019-Oct-15 18:30N 51°00' E 001°54'2 2.6
2019-Oct-15 17:53N 51°02' E 001°52'3 6.1
2019-Oct-15 17:21N 51°03' E 001°48'3 7.6
2019-Oct-15 17:00N 51°05' E 001°44'4 7.9
2019-Oct-15 16:30N 51°07' E 001°39'4 7.6
2019-Oct-15 16:00N 51°08' E 001°34'4 7.1
2019-Oct-15 15:30N 51°11' E 001°29'3 5.6
2019-Oct-15 15:01N 51°12' E 001°26'1 2.3
2019-Oct-15 14:28N 51°14' E 001°25'0 0.0
2019-Oct-15 13:58N 51°14' E 001°25'0 0.0
2019-Oct-15 13:28N 51°14' E 001°25'0 0.0
2019-Oct-15 12:58N 51°14' E 001°25'0 0.0
2019-Oct-15 12:28N 51°14' E 001°25'0 0.0
2019-Oct-15 11:58N 51°14' E 001°25'0 0.0
2019-Oct-15 11:28N 51°14' E 001°25'0 0.0
2019-Oct-15 10:58N 51°14' E 001°25'0 0.0
2019-Oct-15 10:28N 51°14' E 001°25'0 0.0
2019-Oct-15 09:58N 51°14' E 001°25'2 3.9
2019-Oct-15 09:30N 51°15' E 001°27'3 6.6
2019-Oct-15 09:00N 51°18' E 001°28'4 7.9
2019-Oct-15 08:30N 51°22' E 001°29'4 7.7
2019-Oct-15 08:00N 51°26' E 001°31'3 6.8
2019-Oct-15 07:30N 51°28' E 001°34'2 4.6
2019-Oct-15 07:00N 51°29' E 001°38'3 5.9
2019-Oct-15 06:30N 51°28' E 001°42'3 5.6
2019-Oct-15 06:00N 51°28' E 001°47'3 5.3
2019-Oct-15 05:30N 51°27' E 001°51'3 6.2
2019-Oct-15 05:00N 51°26' E 001°56'4 7.5
2019-Oct-15 04:30N 51°26' E 002°02'15 5.7
2019-Oct-15 01:55N 51°24' E 002°25'2 5.8
2019-Oct-15 01:30N 51°24' E 002°29'3 5.0
2019-Oct-15 00:55N 51°24' E 002°34'2 4.3
2019-Oct-15 00:24N 51°24' E 002°37'8 5.5
2019-Oct-14 22:55N 51°25' E 002°50'3 7.0
2019-Oct-14 22:27N 51°25' E 002°55'4 6.5
2019-Oct-14 21:49N 51°26' E 003°01'3 5.3
2019-Oct-14 21:18N 51°28' E 003°05'27 7.3
2019-Oct-14 17:35N 51°47' E 003°36'2 7.8
2019-Oct-14 17:21N 51°48' E 003°38'3 7.4
2019-Oct-14 16:57N 51°50' E 003°41'3 6.6
2019-Oct-14 16:26N 51°53' E 003°45'2 4.7
2019-Oct-14 16:00N 51°54' E 003°48'2 4.1
2019-Oct-14 15:29N 51°55' E 003°50'2 4.8
2019-Oct-14 15:00N 51°57' E 003°53'3 5.3
2019-Oct-14 14:30N 51°59' E 003°56'2 3.1
2019-Oct-14 14:00N 51°60' E 003°59'2 4.2
2019-Oct-14 13:30N 52°01' E 004°01'3 5.3
2019-Oct-14 13:00N 52°03' E 004°04'3 6.4
2019-Oct-14 12:30N 52°05' E 004°08'4 7.3
2019-Oct-14 12:00N 52°08' E 004°11'3 6.5
2019-Oct-14 11:30N 52°11' E 004°15'4 7.6
2019-Oct-14 11:00N 52°14' E 004°18'4 7.8
2019-Oct-14 10:30N 52°17' E 004°21'4 7.2
2019-Oct-14 10:00N 52°20' E 004°24'3 6.7
2019-Oct-14 09:30N 52°23' E 004°27'4 7.6
2019-Oct-14 09:00N 52°26' E 004°30'2 4.0
2019-Oct-14 08:31N 52°28' E 004°33'1 1.3
2019-Oct-14 08:00N 52°28' E 004°34'1 2.2
2019-Oct-14 07:30N 52°28' E 004°36'2 4.0
2019-Oct-14 07:00N 52°28' E 004°39'1 1.5
2019-Oct-14 06:27N 52°28' E 004°40'0 0.0
2019-Oct-14 06:00N 52°28' E 004°40'0 0.0
2019-Oct-14 05:30N 52°28' E 004°40'0 0.0
2019-Oct-14 05:00N 52°28' E 004°40'0 0.0
2019-Oct-14 04:30N 52°28' E 004°40'0 0.0
2019-Oct-14 03:51N 52°28' E 004°40'0 0.0
2019-Oct-14 03:27N 52°28' E 004°40'0 0.0
2019-Oct-14 02:57N 52°28' E 004°40'0 0.0
2019-Oct-14 02:30N 52°28' E 004°40'0 0.0
2019-Oct-14 02:00N 52°28' E 004°40'0 0.0
2019-Oct-14 01:30N 52°28' E 004°40'0 0.0
2019-Oct-14 00:57N 52°28' E 004°40'0 0.0
2019-Oct-14 00:24N 52°28' E 004°40'0 0.0
2019-Oct-13 23:57N 52°28' E 004°40'0 0.0
2019-Oct-13 23:30N 52°28' E 004°40'0 0.0
2019-Oct-13 23:00N 52°28' E 004°40'0 0.0
2019-Oct-13 22:27N 52°28' E 004°40'0 0.0
2019-Oct-13 22:00N 52°28' E 004°40'0 0.0
2019-Oct-13 21:30N 52°28' E 004°40'0 0.0
2019-Oct-13 21:00N 52°28' E 004°40'0 0.0
2019-Oct-13 20:30N 52°28' E 004°40'0 0.0
2019-Oct-13 20:00N 52°28' E 004°40'0 0.0
2019-Oct-13 19:30N 52°28' E 004°40'0 0.0
2019-Oct-13 19:00N 52°28' E 004°40'0 0.0
2019-Oct-13 18:30N 52°28' E 004°40'0 0.5
2019-Oct-13 18:00N 52°28' E 004°40'3 5.0
2019-Oct-13 17:30N 52°26' E 004°43'3 5.6
2019-Oct-13 17:00N 52°26' E 004°47'4 7.2
2019-Oct-13 16:30N 52°24' E 004°53'1 1.2
2019-Oct-13 16:00N 52°24' E 004°53'0 0.0
2019-Oct-13 15:30N 52°24' E 004°53'0 0.0
2019-Oct-13 15:00N 52°24' E 004°53'0 0.0
2019-Oct-13 14:30N 52°24' E 004°53'0 0.0
2019-Oct-13 14:00N 52°24' E 004°53'0 0.0
2019-Oct-13 13:30N 52°24' E 004°53'0 0.0
2019-Oct-13 12:59N 52°24' E 004°53'0 0.0
2019-Oct-13 12:31N 52°24' E 004°53'0 0.3
2019-Oct-13 12:01N 52°24' E 004°54'1 1.5
2019-Oct-13 11:31N 52°23' E 004°54'2 3.7
2019-Oct-13 11:00N 52°25' E 004°52'2 4.8
2019-Oct-13 10:30N 52°25' E 004°48'3 5.1
2019-Oct-13 10:00N 52°26' E 004°44'2 4.7
2019-Oct-13 09:30N 52°27' E 004°41'2 2.8
2019-Oct-13 08:58N 52°28' E 004°40'0 0.0
2019-Oct-13 08:28N 52°28' E 004°40'0 0.0
2019-Oct-13 07:55N 52°28' E 004°40'0 0.0
2019-Oct-13 07:28N 52°28' E 004°40'0 0.0
2019-Oct-13 06:55N 52°28' E 004°40'0 0.0
2019-Oct-13 06:28N 52°28' E 004°40'0 0.0
2019-Oct-13 05:58N 52°28' E 004°40'0 0.0
2019-Oct-13 05:28N 52°28' E 004°40'0 0.0
2019-Oct-13 04:58N 52°28' E 004°40'0 0.0
2019-Oct-13 04:28N 52°28' E 004°40'0 0.0
2019-Oct-13 03:58N 52°28' E 004°40'0 0.0
2019-Oct-13 03:28N 52°28' E 004°40'0 0.0
2019-Oct-13 02:58N 52°28' E 004°40'0 0.0
2019-Oct-13 02:28N 52°28' E 004°40'0 0.0
2019-Oct-13 01:58N 52°28' E 004°40'0 0.0
2019-Oct-13 01:28N 52°28' E 004°40'0 0.0
2019-Oct-13 00:58N 52°28' E 004°40'0 0.0
2019-Oct-13 00:22N 52°28' E 004°40'0 0.0
2019-Oct-12 23:55N 52°28' E 004°40'0 0.0
2019-Oct-12 23:28N 52°28' E 004°40'0 0.0
2019-Oct-12 22:58N 52°28' E 004°40'0 0.0
2019-Oct-12 22:28N 52°28' E 004°40'0 0.0
2019-Oct-12 21:58N 52°28' E 004°40'0 0.0
2019-Oct-12 21:28N 52°28' E 004°40'0 0.0
2019-Oct-12 20:58N 52°28' E 004°40'0 0.0
2019-Oct-12 20:28N 52°28' E 004°40'0 0.0
2019-Oct-12 19:52N 52°28' E 004°40'0 0.0
2019-Oct-12 19:28N 52°28' E 004°40'0 0.0
2019-Oct-12 18:58N 52°28' E 004°40'0 0.0
2019-Oct-12 18:28N 52°28' E 004°40'0 0.0
2019-Oct-12 17:58N 52°28' E 004°40'0 0.0
2019-Oct-12 17:28N 52°28' E 004°40'0 0.0
2019-Oct-12 16:58N 52°28' E 004°40'0 0.0
2019-Oct-12 16:28N 52°28' E 004°40'0 0.0
2019-Oct-12 15:58N 52°28' E 004°40'0 0.0
2019-Oct-12 15:28N 52°28' E 004°40'0 0.0
2019-Oct-12 14:58N 52°28' E 004°40'0 0.0
2019-Oct-12 14:28N 52°28' E 004°40'0 0.0
2019-Oct-12 13:58N 52°28' E 004°40'0 0.0
2019-Oct-12 13:28N 52°28' E 004°40'0 0.0
2019-Oct-12 13:00N 52°28' E 004°40'1 1.9
2019-Oct-12 12:30N 52°27' E 004°40'3 6.2
2019-Oct-12 12:00N 52°26' E 004°45'3 6.1
2019-Oct-12 11:30N 52°25' E 004°50'3 5.9
2019-Oct-12 11:01N 52°24' E 004°54'2 5.0
2019-Oct-12 10:31N 52°23' E 004°57'1 1.8
2019-Oct-12 10:00N 52°22' E 004°59'3 5.4
2019-Oct-12 09:30N 52°23' E 005°03'3 5.7
2019-Oct-12 09:00N 52°24' E 005°07'3 5.7
2019-Oct-12 08:30N 52°26' E 005°11'3 5.6
2019-Oct-12 08:00N 52°28' E 005°15'3 5.6
2019-Oct-12 07:30N 52°29' E 005°18'3 5.8
2019-Oct-12 07:00N 52°30' E 005°23'2 1.5
2019-Oct-12 05:25N 52°31' E 005°26'0 0.0
2019-Oct-12 04:49N 52°31' E 005°26'0 0.0
2019-Oct-12 03:52N 52°31' E 005°26'0 0.0
2019-Oct-12 02:28N 52°31' E 005°26'0 0.0
2019-Oct-12 01:37N 52°31' E 005°26'0 0.0
2019-Oct-12 01:01N 52°31' E 005°26'0 0.0
2019-Oct-11 23:01N 52°31' E 005°26'0 0.0
2019-Oct-11 22:37N 52°31' E 005°26'0 0.0
2019-Oct-11 15:13N 52°31' E 005°26'0 0.0
2019-Oct-11 14:55N 52°31' E 005°26'0 0.0
2019-Oct-11 12:13N 52°31' E 005°26'0 0.0
2019-Oct-11 11:37N 52°31' E 005°26'0 0.0
2019-Oct-11 11:25N 52°31' E 005°26'0 0.0
2019-Oct-11 10:55N 52°31' E 005°26'0 0.0
2019-Oct-11 09:37N 52°31' E 005°26'0 0.0
2019-Oct-11 08:13N 52°31' E 005°26'0 0.0
2019-Oct-11 07:25N 52°31' E 005°26'0 0.0
2019-Oct-11 06:07N 52°31' E 005°26'0 0.0
2019-Oct-10 23:28N 52°31' E 005°26'0 0.0
2019-Oct-10 19:46N 52°31' E 005°26'0 0.0
2019-Oct-10 19:28N 52°31' E 005°26'0 0.0
2019-Oct-10 18:50N 52°31' E 005°26'0 0.5
2019-Oct-10 18:31N 52°31' E 005°26'1 2.2
2019-Oct-10 18:00N 52°32' E 005°26'3 5.1
2019-Oct-10 17:30N 52°34' E 005°28'3 5.5
2019-Oct-10 17:00N 52°37' E 005°29'3 5.4
2019-Oct-10 16:30N 52°40' E 005°30'3 6.7
2019-Oct-10 16:00N 52°42' E 005°26'3 7.0
2019-Oct-10 15:30N 52°44' E 005°22'4 8.3
2019-Oct-10 15:00N 52°47' E 005°17'4 8.6
2019-Oct-10 14:30N 52°50' E 005°12'4 8.1
2019-Oct-10 14:01N 52°53' E 005°07'3 6.7
2019-Oct-10 13:30N 52°55' E 005°03'1 1.7
2019-Oct-10 13:00N 52°56' E 005°02'0 0.0
2019-Oct-10 12:30N 52°56' E 005°02'1 1.5
2019-Oct-10 12:01N 52°57' E 005°02'3 6.7
2019-Oct-10 11:30N 52°59' E 004°57'3 6.2
2019-Oct-10 11:00N 52°59' E 004°52'3 5.9
2019-Oct-10 10:30N 52°58' E 004°48'1 2.7
2019-Oct-10 09:58N 52°57' E 004°47'0 0.3
2019-Oct-10 09:30N 52°57' E 004°47'1 1.4
2019-Oct-10 09:01N 52°57' E 004°46'0 0.0
2019-Oct-10 08:28N 52°57' E 004°46'0 0.0
2019-Oct-10 07:52N 52°57' E 004°46'0 0.0
2019-Oct-10 07:31N 52°57' E 004°46'0 0.0
2019-Oct-10 06:55N 52°57' E 004°46'0 0.0
2019-Oct-10 06:28N 52°57' E 004°46'0 0.0
2019-Oct-10 06:01N 52°57' E 004°46'0 0.0
2019-Oct-10 05:13N 52°57' E 004°46'0 0.0
2019-Oct-10 04:58N 52°57' E 004°46'0 0.0
2019-Oct-10 04:30N 52°57' E 004°46'0 0.0
2019-Oct-10 04:01N 52°57' E 004°46'0 0.0
2019-Oct-10 03:07N 52°57' E 004°46'0 0.0
2019-Oct-10 03:00N 52°57' E 004°46'0 0.0
2019-Oct-10 02:31N 52°57' E 004°46'0 0.0
2019-Oct-10 02:00N 52°57' E 004°46'0 0.0
2019-Oct-10 01:30N 52°57' E 004°46'0 0.0
2019-Oct-10 00:48N 52°57' E 004°46'0 0.0
2019-Oct-10 00:30N 52°57' E 004°46'0 0.0
2019-Oct-10 00:00N 52°57' E 004°46'0 0.0
2019-Oct-09 23:12N 52°57' E 004°46'0 0.0
2019-Oct-09 23:00N 52°57' E 004°46'0 0.0
2019-Oct-09 22:31N 52°57' E 004°46'0 0.0
2019-Oct-09 21:57N 52°57' E 004°46'0 0.0
2019-Oct-09 21:27N 52°57' E 004°46'0 0.0
2019-Oct-09 21:00N 52°57' E 004°46'0 0.0
2019-Oct-09 20:25N 52°57' E 004°46'0 0.0
2019-Oct-09 19:54N 52°57' E 004°46'0 0.0
2019-Oct-09 19:30N 52°57' E 004°46'0 0.0
2019-Oct-09 19:00N 52°57' E 004°46'0 0.4
2019-Oct-09 18:30N 52°57' E 004°47'0 0.9
2019-Oct-09 18:00N 52°57' E 004°47'1 1.3
2019-Oct-09 17:30N 52°58' E 004°47'1 2.1
2019-Oct-09 17:00N 52°58' E 004°45'3 6.0
2019-Oct-09 16:30N 52°57' E 004°41'4 7.5
2019-Oct-09 15:59N 52°53' E 004°38'4 7.2
2019-Oct-09 15:22N 52°50' E 004°33'4 9.1
2019-Oct-09 14:58N 52°47' E 004°30'8 9.6
2019-Oct-09 14:07N 52°40' E 004°23'5 8.1
2019-Oct-09 13:27N 52°35' E 004°19'510.8
2019-Oct-09 13:00N 52°30' E 004°18'4 9.1
2019-Oct-09 12:30N 52°26' E 004°16'510.1
2019-Oct-09 12:00N 52°21' E 004°13'510.4
2019-Oct-09 11:30N 52°16' E 004°11'510.0
2019-Oct-09 11:00N 52°11' E 004°09'510.3
2019-Oct-09 10:30N 52°06' E 004°06'510.1
2019-Oct-09 10:00N 52°02' E 004°02'3 7.0
2019-Oct-09 09:31N 51°59' E 004°06'5 9.3
2019-Oct-09 09:00N 51°56' E 004°12'5 9.1
2019-Oct-09 08:31N 51°54' E 004°18'4 8.0
2019-Oct-09 08:01N 51°54' E 004°24'3 5.2
2019-Oct-09 07:29N 51°54' E 004°29'0 0.0
2019-Oct-09 06:59N 51°54' E 004°29'0 0.0
2019-Oct-09 06:29N 51°54' E 004°29'0 0.0
2019-Oct-09 05:59N 51°54' E 004°29'0 0.0
2019-Oct-09 05:29N 51°54' E 004°29'0 0.0
2019-Oct-09 04:59N 51°54' E 004°29'0 0.0
2019-Oct-09 04:29N 51°54' E 004°29'0 0.0
2019-Oct-09 03:59N 51°54' E 004°29'0 0.0
2019-Oct-09 03:29N 51°54' E 004°29'0 0.0
2019-Oct-09 02:59N 51°54' E 004°29'0 0.0
2019-Oct-09 02:29N 51°54' E 004°29'0 0.0
2019-Oct-09 01:59N 51°54' E 004°29'0 0.0
2019-Oct-09 01:29N 51°54' E 004°29'0 0.0
2019-Oct-09 00:59N 51°54' E 004°29'0 0.0
2019-Oct-09 00:29N 51°54' E 004°29'0 0.0
2019-Oct-08 23:59N 51°54' E 004°29'0 0.0
2019-Oct-08 23:29N 51°54' E 004°29'0 0.0
2019-Oct-08 22:59N 51°54' E 004°29'0 0.0
2019-Oct-08 22:29N 51°54' E 004°29'0 0.0
2019-Oct-08 21:59N 51°54' E 004°29'0 0.0
2019-Oct-08 21:29N 51°54' E 004°29'0 0.0
2019-Oct-08 20:59N 51°54' E 004°29'0 0.0
2019-Oct-08 20:29N 51°54' E 004°29'0 0.0
2019-Oct-08 19:59N 51°54' E 004°29'0 0.0
2019-Oct-08 19:29N 51°54' E 004°29'0 0.0
2019-Oct-08 18:59N 51°54' E 004°29'0 0.0
2019-Oct-08 18:29N 51°54' E 004°29'0 0.0
2019-Oct-08 17:59N 51°54' E 004°29'0 0.0
2019-Oct-08 17:29N 51°54' E 004°29'0 0.0
2019-Oct-08 16:59N 51°54' E 004°29'0 0.0
2019-Oct-08 16:29N 51°54' E 004°29'0 0.0
2019-Oct-08 15:59N 51°54' E 004°29'0 0.0
2019-Oct-08 15:29N 51°54' E 004°29'0 0.0
2019-Oct-08 14:59N 51°54' E 004°29'0 0.0
2019-Oct-08 14:29N 51°54' E 004°29'0 0.0
2019-Oct-08 13:59N 51°54' E 004°29'0 0.0
2019-Oct-08 13:29N 51°54' E 004°29'0 0.0
2019-Oct-08 12:59N 51°54' E 004°29'0 0.0
2019-Oct-08 12:29N 51°54' E 004°29'0 0.0
2019-Oct-08 11:59N 51°54' E 004°29'0 0.0
2019-Oct-08 11:29N 51°54' E 004°29'0 0.0
2019-Oct-08 10:59N 51°54' E 004°29'0 0.0
2019-Oct-08 10:29N 51°54' E 004°29'0 0.0
2019-Oct-08 09:59N 51°54' E 004°29'0 0.0
2019-Oct-08 09:29N 51°54' E 004°29'0 0.0
2019-Oct-08 08:59N 51°54' E 004°29'0 0.0
2019-Oct-08 08:29N 51°54' E 004°29'0 0.0
2019-Oct-08 07:59N 51°54' E 004°29'0 0.0
2019-Oct-08 07:29N 51°54' E 004°29'0 0.0
2019-Oct-08 06:59N 51°54' E 004°29'0 0.0
2019-Oct-08 06:29N 51°54' E 004°29'0 0.0
2019-Oct-08 05:59N 51°54' E 004°29'0 0.0
2019-Oct-08 05:29N 51°54' E 004°29'0 0.0
2019-Oct-08 04:59N 51°54' E 004°29'0 0.0
2019-Oct-08 04:29N 51°54' E 004°29'0 0.0
2019-Oct-08 03:59N 51°54' E 004°29'0 0.0
2019-Oct-08 03:29N 51°54' E 004°29'0 0.0
2019-Oct-08 02:59N 51°54' E 004°29'0 0.0
2019-Oct-08 02:29N 51°54' E 004°29'0 0.0
2019-Oct-08 01:59N 51°54' E 004°29'0 0.0
2019-Oct-08 01:29N 51°54' E 004°29'0 0.0
2019-Oct-08 00:59N 51°54' E 004°29'0 0.0
2019-Oct-08 00:29N 51°54' E 004°29'0 0.0
2019-Oct-07 23:59N 51°54' E 004°29'0 0.0
2019-Oct-07 23:29N 51°54' E 004°29'0 0.0
2019-Oct-07 22:59N 51°54' E 004°29'0 0.0
2019-Oct-07 22:29N 51°54' E 004°29'0 0.0
2019-Oct-07 21:59N 51°54' E 004°29'0 0.0
2019-Oct-07 21:29N 51°54' E 004°29'0 0.0
2019-Oct-07 20:59N 51°54' E 004°29'0 0.0
2019-Oct-07 20:29N 51°54' E 004°29'0 0.0
2019-Oct-07 19:59N 51°54' E 004°29'0 0.0
2019-Oct-07 19:29N 51°54' E 004°29'0 0.0
2019-Oct-07 18:59N 51°54' E 004°29'0 0.0
2019-Oct-07 18:29N 51°54' E 004°29'0 0.1
2019-Oct-07 18:00N 51°54' E 004°29'2 4.7
2019-Oct-07 17:30N 51°54' E 004°25'  

Dump ship's entire track history